createdAt,value
2018-08-04T00:03:44.362Z,51.87
2018-08-04T00:08:37.478Z,52.12
2018-08-04T00:13:30.965Z,51.98
2018-08-04T00:18:23.925Z,52.09
2018-08-04T00:23:16.963Z,52.71
2018-08-04T00:28:10.188Z,52.04
2018-08-04T00:33:03.242Z,51.87
2018-08-04T00:37:56.311Z,52.13
2018-08-04T00:42:49.235Z,51.51
2018-08-04T00:47:42.336Z,51.60
2018-08-04T00:52:36.389Z,51.52
2018-08-04T00:57:29.455Z,51.18
2018-08-04T01:02:22.522Z,50.69
2018-08-04T01:07:15.726Z,50.34
2018-08-04T01:12:08.715Z,51.56
2018-08-04T01:17:01.800Z,51.64
2018-08-04T01:21:54.864Z,51.77
2018-08-04T01:26:47.860Z,51.87
2018-08-04T01:31:40.892Z,52.13
2018-08-04T01:36:33.826Z,53.34
2018-08-04T01:41:26.806Z,54.93
2018-08-04T01:46:19.934Z,56.50
2018-08-04T01:51:12.889Z,57.88
2018-08-04T01:56:05.829Z,58.39
2018-08-04T02:00:58.957Z,57.40
2018-08-04T02:05:51.856Z,58.50
2018-08-04T02:10:45.624Z,57.53
2018-08-04T02:15:39.182Z,56.66
2018-08-04T02:20:32.535Z,56.82
2018-08-04T02:25:25.505Z,55.49
2018-08-04T02:30:18.753Z,53.77
2018-08-04T02:35:11.863Z,52.38
2018-08-04T02:40:05.815Z,50.59
2018-08-04T02:44:58.993Z,49.32
2018-08-04T02:49:51.965Z,49.26
2018-08-04T02:54:44.900Z,49.52
2018-08-04T02:59:37.901Z,48.42
2018-08-04T03:04:30.947Z,48.47
2018-08-04T03:09:24.064Z,48.13
2018-08-04T03:14:17.261Z,49.12
2018-08-04T03:19:10.267Z,49.25
2018-08-04T03:24:03.506Z,49.62
2018-08-04T03:28:56.544Z,49.79
2018-08-04T03:33:49.597Z,50.03
2018-08-04T03:38:42.737Z,50.70
2018-08-04T03:43:35.825Z,51.13
2018-08-04T03:48:29.526Z,52.90
2018-08-04T03:53:22.554Z,54.71
2018-08-04T03:58:15.437Z,53.89
2018-08-04T04:03:08.711Z,52.83
2018-08-04T04:08:01.791Z,53.01
2018-08-04T04:12:54.926Z,53.07
2018-08-04T04:17:48.844Z,52.75
2018-08-04T04:22:42.029Z,52.77
2018-08-04T04:27:36.201Z,53.18
2018-08-04T04:32:29.334Z,56.61
2018-08-04T04:37:22.250Z,58.43
2018-08-04T04:42:15.357Z,60.60
2018-08-04T04:47:08.348Z,60.61
2018-08-04T04:52:02.051Z,59.61
2018-08-04T04:56:55.040Z,58.87
2018-08-04T05:01:47.977Z,55.65
2018-08-04T05:06:41.006Z,55.57
2018-08-04T05:11:33.988Z,54.76
2018-08-04T05:16:26.961Z,55.27
2018-08-04T05:21:19.978Z,53.76
2018-08-04T05:26:13.424Z,52.26
2018-08-04T05:31:06.858Z,48.61
2018-08-04T05:35:59.788Z,48.37
2018-08-04T05:40:52.814Z,49.06
2018-08-04T05:45:45.767Z,48.38
2018-08-04T05:50:38.663Z,49.89
2018-08-04T05:55:31.916Z,48.10
2018-08-04T06:00:24.900Z,47.68
2018-08-04T06:05:17.822Z,48.70
2018-08-04T06:10:10.778Z,45.18
2018-08-04T06:15:04.003Z,43.95
2018-08-04T06:19:58.180Z,44.80
2018-08-04T06:24:51.793Z,43.51
2018-08-04T06:29:44.706Z,43.72
2018-08-04T06:34:37.757Z,43.00
2018-08-04T06:39:30.812Z,43.42
2018-08-04T06:44:23.958Z,44.18
2018-08-04T06:49:17.080Z,43.38
2018-08-04T06:54:10.567Z,42.65
2018-08-04T06:59:03.714Z,42.08
2018-08-04T07:03:57.000Z,43.99
2018-08-04T07:08:50.079Z,42.95
2018-08-04T07:13:43.490Z,40.05
2018-08-04T07:18:36.842Z,40.63
2018-08-04T07:23:29.957Z,40.23
2018-08-04T07:28:22.921Z,40.43
2018-08-04T07:33:16.388Z,40.68
2018-08-04T07:38:09.340Z,39.70
2018-08-04T07:43:02.851Z,39.90
2018-08-04T07:47:56.015Z,39.88
2018-08-04T07:52:49.584Z,38.28
2018-08-04T07:57:43.237Z,36.99
2018-08-04T08:02:36.425Z,39.42
2018-08-04T08:07:29.505Z,36.33
2018-08-04T08:12:22.761Z,35.69
2018-08-04T08:17:16.217Z,37.15
2018-08-04T08:22:09.221Z,37.72
2018-08-04T08:27:02.235Z,37.61
2018-08-04T08:31:55.630Z,36.86
2018-08-04T08:36:48.801Z,34.59
2018-08-04T08:41:41.733Z,35.69
2018-08-04T08:46:34.838Z,35.23
2018-08-04T08:51:28.192Z,34.27
2018-08-04T08:56:24.901Z,35.16
2018-08-04T09:01:17.945Z,33.43
2018-08-04T09:06:12.941Z,33.70
2018-08-04T09:11:05.970Z,33.22
2018-08-04T09:15:59.238Z,34.44
2018-08-04T09:20:52.284Z,33.34
2018-08-04T09:25:45.355Z,31.23
2018-08-04T09:30:38.318Z,33.48
2018-08-04T09:35:31.571Z,31.79
2018-08-04T09:40:24.556Z,32.91
2018-08-04T09:45:17.795Z,30.70
2018-08-04T09:50:16.162Z,31.68
2018-08-04T09:55:11.136Z,33.11
2018-08-04T10:00:07.223Z,32.62
2018-08-04T10:05:00.155Z,29.79
2018-08-04T10:09:53.317Z,33.52
2018-08-04T10:14:46.370Z,31.01
2018-08-04T10:19:39.870Z,32.37
2018-08-04T10:24:33.732Z,33.10
2018-08-04T10:29:26.610Z,32.16
2018-08-04T10:34:19.586Z,33.29
2018-08-04T10:39:12.628Z,32.64
2018-08-04T10:44:05.965Z,32.70
2018-08-04T10:48:58.877Z,31.66
2018-08-04T10:53:51.898Z,34.57
2018-08-04T10:58:45.047Z,32.92
2018-08-04T11:03:38.060Z,33.14
2018-08-04T11:08:31.243Z,31.71
2018-08-04T11:13:24.542Z,33.47
2018-08-04T11:18:17.457Z,32.24
2018-08-04T11:23:10.382Z,33.44
2018-08-04T11:28:03.348Z,32.45
2018-08-04T11:32:56.426Z,34.52
2018-08-04T11:37:49.643Z,31.52
2018-08-04T11:42:42.561Z,32.19
2018-08-04T11:47:35.959Z,31.81
2018-08-04T11:52:29.031Z,31.11
2018-08-04T11:57:22.018Z,30.52
2018-08-04T12:02:15.277Z,32.27
2018-08-04T12:07:08.419Z,33.83
2018-08-04T12:12:01.348Z,33.92
2018-08-04T12:16:54.353Z,28.99
2018-08-04T12:21:47.549Z,31.39
2018-08-04T12:26:40.675Z,32.49
2018-08-04T12:31:34.054Z,32.58
2018-08-04T12:36:27.187Z,33.68
2018-08-04T12:41:20.280Z,33.27
2018-08-04T12:46:13.327Z,30.78
2018-08-04T12:51:06.276Z,30.84
2018-08-04T12:55:59.944Z,31.46
2018-08-04T13:00:53.226Z,32.20
2018-08-04T13:05:46.184Z,33.54
2018-08-04T13:10:39.158Z,31.81
2018-08-04T13:15:32.198Z,30.34
2018-08-04T13:20:25.118Z,29.67
2018-08-04T13:25:18.210Z,29.63
2018-08-04T13:30:11.136Z,29.24
2018-08-04T13:35:04.120Z,30.83
2018-08-04T13:39:57.137Z,30.54
2018-08-04T13:44:50.130Z,31.73
2018-08-04T13:49:43.254Z,33.12
2018-08-04T13:54:36.326Z,31.15
2018-08-04T13:59:29.283Z,29.88
2018-08-04T14:04:22.438Z,31.80
2018-08-04T14:09:15.522Z,31.75
2018-08-04T14:14:08.619Z,31.84
2018-08-04T14:19:01.806Z,32.54
2018-08-04T14:23:56.402Z,30.96
2018-08-04T14:28:49.564Z,31.25
2018-08-04T14:33:42.699Z,29.88
2018-08-04T14:38:35.635Z,29.88
2018-08-04T14:43:28.739Z,30.84
2018-08-04T14:48:21.767Z,30.12
2018-08-04T14:53:14.754Z,31.39
2018-08-04T14:58:07.712Z,31.92
2018-08-04T15:03:00.764Z,31.25
2018-08-04T15:07:53.803Z,30.33
2018-08-04T15:12:46.855Z,30.52
2018-08-04T15:17:40.850Z,31.17
2018-08-04T15:22:33.837Z,30.45
2018-08-04T15:27:26.833Z,29.96
2018-08-04T15:32:19.923Z,29.44
2018-08-04T15:37:12.928Z,29.99
2018-08-04T15:42:06.170Z,30.22
2018-08-04T15:46:59.055Z,30.73
2018-08-04T15:51:51.993Z,30.67
2018-08-04T15:56:44.913Z,30.24
2018-08-04T16:01:37.848Z,30.55
2018-08-04T16:06:30.891Z,30.55
2018-08-04T16:11:23.789Z,30.12
2018-08-04T16:16:16.832Z,30.38
2018-08-04T16:21:09.934Z,31.42
2018-08-04T16:26:03.002Z,31.61
2018-08-04T16:30:56.505Z,32.26
2018-08-04T16:35:49.952Z,35.78
2018-08-04T16:40:44.266Z,35.02
2018-08-04T16:45:37.768Z,40.32
2018-08-04T16:50:30.898Z,42.28
2018-08-04T16:55:23.811Z,43.66
2018-08-04T17:00:17.531Z,44.79
2018-08-04T17:05:10.435Z,46.18
2018-08-04T17:10:03.538Z,47.46
2018-08-04T17:14:56.621Z,47.98
2018-08-04T17:19:49.688Z,48.55
2018-08-04T17:24:42.745Z,49.64
2018-08-04T17:29:35.761Z,49.56
2018-08-04T17:34:29.278Z,50.40
2018-08-04T17:39:22.754Z,50.75
2018-08-04T17:44:15.749Z,51.25
2018-08-04T17:49:08.788Z,50.77
2018-08-04T17:54:01.779Z,51.06
2018-08-04T17:58:54.787Z,51.38
2018-08-04T18:03:47.883Z,50.48
2018-08-04T18:08:40.894Z,51.29
2018-08-04T18:13:33.878Z,50.80
2018-08-04T18:18:27.244Z,50.98
2018-08-04T18:23:20.464Z,49.91
2018-08-04T18:28:13.385Z,51.34
2018-08-04T18:33:06.808Z,52.20
2018-08-04T18:37:59.824Z,52.85
2018-08-04T18:42:52.935Z,52.56
2018-08-04T18:47:46.255Z,52.79
2018-08-04T18:52:39.279Z,52.10
2018-08-04T18:57:32.387Z,52.72
2018-08-04T19:02:25.752Z,54.94
2018-08-04T19:07:18.675Z,56.21
2018-08-04T19:12:12.678Z,57.06
2018-08-04T19:17:05.715Z,59.08
2018-08-04T19:21:59.148Z,58.74
2018-08-04T19:26:52.299Z,60.71
2018-08-04T19:31:45.428Z,60.21
2018-08-04T19:36:38.394Z,61.55
2018-08-04T19:41:31.411Z,61.70
2018-08-04T19:46:24.464Z,61.82
2018-08-04T19:51:17.509Z,61.43
2018-08-04T19:56:10.620Z,60.72
2018-08-04T20:01:03.941Z,61.16
2018-08-04T20:06:01.696Z,61.18
2018-08-04T20:10:55.550Z,60.82
2018-08-04T20:15:48.722Z,61.14
2018-08-04T20:20:41.720Z,60.97
2018-08-04T20:25:34.816Z,60.72
2018-08-04T20:30:27.982Z,60.85
2018-08-04T20:35:21.295Z,60.62
2018-08-04T20:40:14.275Z,60.41
2018-08-04T20:45:07.281Z,60.39
2018-08-04T20:50:00.414Z,60.87
2018-08-04T20:54:53.954Z,61.40
2018-08-04T20:59:47.327Z,61.93
2018-08-04T21:04:40.264Z,62.16
2018-08-04T21:09:33.738Z,62.18
2018-08-04T21:14:28.196Z,61.70
2018-08-04T21:19:22.211Z,61.84
2018-08-04T21:24:16.953Z,61.32
2018-08-04T21:29:10.084Z,61.26
2018-08-04T21:34:03.199Z,59.09
2018-08-04T21:38:56.125Z,59.02
2018-08-04T21:43:49.269Z,58.76
2018-08-04T21:48:42.442Z,59.06
2018-08-04T21:53:35.624Z,59.37
2018-08-04T21:58:28.764Z,58.99
2018-08-04T22:03:21.842Z,58.41
2018-08-04T22:08:26.964Z,58.39
2018-08-04T22:13:20.258Z,61.20
2018-08-04T22:18:13.253Z,63.65
2018-08-04T22:23:06.422Z,64.60
2018-08-04T22:27:59.988Z,64.59
2018-08-04T22:32:53.713Z,62.80
2018-08-04T22:37:46.779Z,61.76
2018-08-04T22:42:40.064Z,61.91
2018-08-04T22:47:33.347Z,60.67
2018-08-04T22:52:26.432Z,61.32
2018-08-04T22:57:19.354Z,61.97
2018-08-04T23:02:12.771Z,62.14
2018-08-04T23:07:05.886Z,61.10
2018-08-04T23:11:58.980Z,61.40
2018-08-04T23:16:51.965Z,60.61
2018-08-04T23:21:46.057Z,61.44
2018-08-04T23:26:39.011Z,60.65
2018-08-04T23:31:31.979Z,60.64
2018-08-04T23:36:25.033Z,62.04
2018-08-04T23:41:18.158Z,63.27
2018-08-04T23:46:12.149Z,63.94
2018-08-04T23:51:05.165Z,63.06
2018-08-04T23:55:58.161Z,61.66
